createdAt,value
2023-02-07T00:01:00.312Z,33.25
2023-02-07T00:04:04.467Z,31.90
2023-02-07T00:07:08.118Z,27.92
2023-02-07T00:10:11.936Z,28.23
2023-02-07T00:13:15.585Z,30.25
2023-02-07T00:16:19.426Z,35.38
2023-02-07T00:19:23.132Z,13.85
2023-02-07T00:22:26.784Z,21.55
2023-02-07T00:25:30.314Z,19.35
2023-02-07T00:28:34.280Z,21.52
2023-02-07T00:31:38.166Z,27.35
2023-02-07T00:34:43.616Z,30.08
2023-02-07T00:37:47.251Z,37.65
2023-02-07T00:40:51.776Z,42.78
2023-02-07T00:43:55.786Z,18.42
2023-02-07T00:46:59.955Z,20.60
2023-02-07T00:50:03.687Z,30.02
2023-02-07T00:53:07.243Z,25.90
2023-02-07T00:56:10.499Z,30.63
2023-02-07T00:59:14.673Z,15.63
2023-02-07T01:02:17.680Z,37.15
2023-02-07T01:05:21.642Z,26.58
2023-02-07T01:08:25.441Z,33.67
2023-02-07T01:11:29.793Z,20.80
2023-02-07T01:14:33.611Z,40.47
2023-02-07T01:17:38.272Z,30.65
2023-02-07T01:20:42.004Z,23.65
2023-02-07T01:23:46.042Z,15.52
2023-02-07T01:26:49.772Z,24.15
2023-02-07T01:29:53.472Z,26.15
2023-02-07T01:32:57.032Z,18.25
2023-02-07T01:36:01.794Z,28.50
2023-02-07T01:39:05.784Z,32.05
2023-02-07T01:42:18.640Z,22.40
2023-02-07T01:45:33.202Z,32.85
2023-02-07T01:48:37.969Z,18.92
2023-02-07T01:51:45.269Z,22.67
2023-02-07T01:54:53.174Z,11.43
2023-02-07T01:57:56.979Z,26.27
2023-02-07T02:01:05.688Z,24.23
2023-02-07T02:04:08.549Z,22.75
2023-02-07T02:07:14.778Z,9.95
2023-02-07T02:10:21.690Z,16.48
2023-02-07T02:13:59.079Z,10.32
2023-02-07T02:17:15.485Z,14.02
2023-02-07T02:20:56.482Z,13.88
2023-02-07T02:24:08.251Z,11.18
2023-02-07T02:27:24.721Z,11.18
2023-02-07T02:30:39.805Z,11.32
2023-02-07T02:34:09.050Z,8.48
2023-02-07T02:37:57.848Z,9.82
2023-02-07T02:41:11.278Z,4.57
2023-02-07T02:44:31.946Z,5.80
2023-02-07T02:47:38.385Z,10.73
2023-02-07T02:50:48.226Z,3.03
2023-02-07T02:53:57.456Z,9.63
2023-02-07T02:57:21.132Z,9.63
2023-02-07T03:00:41.726Z,12.32
2023-02-07T03:04:29.105Z,15.15
2023-02-07T03:07:58.396Z,9.52
2023-02-07T03:12:12.495Z,9.90
2023-02-07T03:15:44.435Z,5.28
2023-02-07T03:19:03.165Z,12.75
2023-02-07T03:22:17.797Z,5.93
2023-02-07T03:25:41.834Z,15.90
2023-02-07T03:28:47.102Z,14.48
2023-02-07T03:31:54.287Z,5.65
2023-02-07T03:35:23.683Z,14.63
2023-02-07T03:38:27.143Z,16.95
2023-02-07T03:41:36.390Z,7.55
2023-02-07T03:44:43.160Z,15.98
2023-02-07T03:47:47.612Z,15.68
2023-02-07T03:50:52.950Z,3.88
2023-02-07T03:53:56.630Z,9.95
2023-02-07T03:57:00.656Z,7.20
2023-02-07T04:00:06.261Z,7.43
2023-02-07T04:03:14.999Z,12.23
2023-02-07T04:06:18.048Z,9.32
2023-02-07T04:09:22.400Z,9.60
2023-02-07T04:12:26.869Z,6.75
2023-02-07T04:15:30.427Z,11.23
2023-02-07T04:18:34.640Z,13.88
2023-02-07T04:21:39.032Z,10.48
2023-02-07T04:24:42.316Z,8.18
2023-02-07T04:27:46.286Z,10.50
2023-02-07T04:30:49.585Z,10.98
2023-02-07T04:33:52.959Z,10.60
2023-02-07T04:36:56.172Z,11.35
2023-02-07T04:40:00.209Z,14.68
2023-02-07T04:43:03.460Z,7.30
2023-02-07T04:46:08.582Z,11.57
2023-02-07T04:49:12.258Z,3.90
2023-02-07T04:52:16.578Z,7.30
2023-02-07T04:55:20.106Z,4.85
2023-02-07T04:58:24.792Z,7.07
2023-02-07T05:01:28.394Z,4.20
2023-02-07T05:04:32.132Z,6.30
2023-02-07T05:07:35.502Z,5.25
2023-02-07T05:10:40.083Z,7.20
2023-02-07T05:13:43.353Z,5.30
2023-02-07T05:16:47.606Z,2.63
2023-02-07T05:19:50.958Z,2.70
2023-02-07T05:22:54.786Z,5.85
2023-02-07T05:25:58.753Z,1.60
2023-02-07T05:29:02.167Z,2.97
2023-02-07T05:32:23.540Z,10.40
2023-02-07T05:35:26.822Z,2.53
2023-02-07T05:38:30.481Z,7.88
2023-02-07T05:41:34.565Z,5.95
2023-02-07T05:44:37.736Z,1.92
2023-02-07T05:47:41.713Z,3.40
2023-02-07T05:50:45.020Z,2.58
2023-02-07T05:53:48.406Z,4.30
2023-02-07T05:56:51.983Z,2.65
2023-02-07T05:59:55.324Z,3.17
2023-02-07T06:02:59.294Z,4.38
2023-02-07T06:06:02.601Z,2.15
2023-02-07T06:09:06.699Z,3.33
2023-02-07T06:12:10.306Z,3.67
2023-02-07T06:15:13.679Z,2.10
2023-02-07T06:18:17.820Z,3.80
2023-02-07T06:21:20.955Z,4.95
2023-02-07T06:24:24.757Z,3.97
2023-02-07T06:27:27.770Z,6.75
2023-02-07T06:30:31.280Z,3.50
2023-02-07T06:33:35.676Z,2.42
2023-02-07T06:36:39.851Z,3.88
2023-02-07T06:39:43.497Z,4.03
2023-02-07T06:42:47.425Z,3.30
2023-02-07T06:45:51.609Z,3.45
2023-02-07T06:48:55.772Z,5.53
2023-02-07T06:51:59.509Z,2.95
2023-02-07T06:55:03.582Z,8.25
2023-02-07T06:58:08.622Z,2.28
2023-02-07T07:01:12.846Z,8.18
2023-02-07T07:04:16.869Z,5.10
2023-02-07T07:07:21.111Z,5.38
2023-02-07T07:10:24.942Z,5.55
2023-02-07T07:13:28.637Z,3.50
2023-02-07T07:16:35.484Z,7.53
2023-02-07T07:20:25.835Z,2.40
2023-02-07T07:23:32.774Z,4.00
2023-02-07T07:26:48.944Z,7.22
2023-02-07T07:29:52.644Z,8.98
2023-02-07T07:32:56.647Z,7.25
2023-02-07T07:36:01.565Z,7.55
2023-02-07T07:39:04.873Z,7.60
2023-02-07T07:42:07.949Z,3.97
2023-02-07T07:45:31.512Z,6.47
2023-02-07T07:48:36.155Z,9.32
2023-02-07T07:51:39.268Z,8.98
2023-02-07T07:54:42.321Z,8.93
2023-02-07T07:57:46.117Z,5.88
2023-02-07T08:00:49.821Z,9.27
2023-02-07T08:03:52.873Z,7.80
2023-02-07T08:06:56.049Z,9.05
2023-02-07T08:09:59.052Z,6.18
2023-02-07T08:13:03.093Z,7.15
2023-02-07T08:16:11.575Z,4.63
2023-02-07T08:19:15.136Z,7.13
2023-02-07T08:22:18.795Z,5.75
2023-02-07T08:25:25.140Z,9.82
2023-02-07T08:28:30.173Z,8.02
2023-02-07T08:31:34.622Z,9.70
2023-02-07T08:34:38.693Z,14.43
2023-02-07T08:37:42.222Z,14.32
2023-02-07T08:40:48.441Z,8.57
2023-02-07T08:43:53.387Z,10.60
2023-02-07T08:46:58.010Z,5.65
2023-02-07T08:50:02.817Z,10.30
2023-02-07T08:56:32.168Z,12.48
2023-02-07T08:59:36.240Z,15.15
2023-02-07T09:06:03.316Z,22.00
2023-02-07T09:09:08.677Z,21.45
2023-02-07T09:12:13.149Z,47.13
2023-02-07T09:15:19.592Z,33.35
2023-02-07T09:18:27.513Z,51.88
2023-02-07T09:21:32.866Z,34.08
2023-02-07T09:24:36.842Z,24.50
2023-02-07T09:27:40.947Z,24.38
2023-02-07T09:30:46.960Z,34.95
2023-02-07T09:33:51.423Z,38.20
2023-02-07T09:36:56.176Z,14.93
2023-02-07T09:40:00.209Z,32.38
2023-02-07T09:43:21.482Z,27.17
2023-02-07T09:46:54.715Z,22.88
2023-02-07T09:50:24.232Z,15.68
2023-02-07T09:53:41.386Z,24.02
2023-02-07T09:56:45.442Z,15.50
2023-02-07T10:00:03.130Z,13.70
2023-02-07T10:03:19.064Z,14.98
2023-02-07T10:06:29.598Z,24.17
2023-02-07T10:09:41.301Z,32.35
2023-02-07T10:12:59.859Z,59.33
2023-02-07T10:16:11.766Z,23.17
2023-02-07T10:19:30.627Z,22.65
2023-02-07T10:23:16.758Z,21.65
2023-02-07T10:26:42.617Z,31.33
2023-02-07T10:30:06.523Z,28.13
2023-02-07T10:33:20.077Z,34.95
2023-02-07T10:36:26.765Z,18.77
2023-02-07T10:39:40.444Z,44.85
2023-02-07T10:42:48.278Z,43.40
2023-02-07T10:46:00.378Z,50.63
2023-02-07T10:49:11.046Z,42.08
2023-02-07T10:52:47.950Z,48.72
2023-02-07T10:55:55.673Z,36.38
2023-02-07T11:02:32.943Z,37.15
2023-02-07T11:05:43.292Z,27.98
2023-02-07T11:08:46.865Z,39.67
2023-02-07T11:11:52.785Z,39.15
2023-02-07T11:15:09.160Z,31.08
2023-02-07T11:18:25.004Z,32.37
2023-02-07T11:21:35.073Z,52.53
2023-02-07T11:24:39.202Z,60.33
2023-02-07T11:27:43.779Z,51.60
2023-02-07T11:30:58.769Z,44.50
2023-02-07T11:34:29.074Z,23.95
2023-02-07T11:37:39.637Z,24.77
2023-02-07T11:40:44.440Z,18.35
2023-02-07T11:44:20.185Z,20.25
2023-02-07T11:47:41.178Z,13.00
2023-02-07T11:50:48.630Z,22.27
2023-02-07T11:53:57.837Z,14.80
2023-02-07T11:57:13.027Z,13.25
2023-02-07T12:00:31.399Z,13.93
2023-02-07T12:03:47.842Z,12.07
2023-02-07T12:07:10.774Z,7.45
2023-02-07T12:10:24.816Z,20.50
2023-02-07T12:13:38.222Z,13.50
2023-02-07T12:16:49.453Z,23.52
2023-02-07T12:20:02.309Z,15.93
2023-02-07T12:23:41.357Z,15.88
2023-02-07T12:26:55.967Z,15.93
2023-02-07T12:30:15.198Z,19.05
2023-02-07T12:33:48.261Z,21.25
2023-02-07T12:36:57.072Z,44.40
2023-02-07T12:40:06.275Z,32.63
2023-02-07T12:43:36.993Z,20.75
2023-02-07T12:46:50.746Z,20.48
2023-02-07T12:50:27.948Z,20.77
2023-02-07T13:06:20.821Z,21.85
2023-02-07T13:10:16.209Z,29.88
2023-02-07T13:17:19.007Z,34.47
2023-02-07T13:26:06.232Z,27.75
2023-02-07T13:29:20.509Z,49.75
2023-02-07T13:32:31.609Z,36.45
2023-02-07T13:35:43.516Z,9.82
2023-02-07T13:39:07.084Z,37.22
2023-02-07T13:43:10.684Z,22.80
2023-02-07T13:47:02.839Z,29.90
2023-02-07T13:54:26.137Z,25.77
2023-02-07T13:57:54.213Z,25.40
2023-02-07T14:04:56.836Z,15.15
2023-02-07T14:08:08.711Z,23.10
2023-02-07T14:18:47.953Z,14.48
2023-02-07T14:22:28.276Z,11.15
2023-02-07T14:25:49.969Z,26.13
2023-02-07T14:33:37.447Z,18.52
2023-02-07T14:36:48.898Z,18.90
2023-02-07T14:44:13.747Z,16.98
2023-02-07T14:47:34.946Z,13.10
2023-02-07T14:50:43.254Z,23.73
2023-02-07T14:57:14.330Z,12.90
2023-02-07T15:04:27.972Z,13.18
2023-02-07T15:07:37.092Z,12.50
2023-02-07T15:14:08.730Z,19.98
2023-02-07T15:17:44.000Z,12.55
2023-02-07T15:20:58.755Z,11.57
2023-02-07T15:24:25.624Z,9.40
2023-02-07T15:27:32.716Z,8.60
2023-02-07T15:38:29.309Z,16.38
2023-02-07T15:41:40.228Z,17.73
2023-02-07T15:53:41.472Z,18.80
2023-02-07T15:56:52.553Z,13.48
2023-02-07T16:00:06.760Z,19.52
2023-02-07T16:03:34.528Z,9.82
2023-02-07T16:06:58.901Z,20.25
2023-02-07T16:10:24.929Z,19.75
2023-02-07T16:13:40.817Z,11.00
2023-02-07T16:16:57.320Z,16.00
2023-02-07T16:20:08.313Z,15.80
2023-02-07T16:23:19.791Z,12.82
2023-02-07T16:26:32.513Z,18.92
2023-02-07T16:29:45.239Z,11.60
2023-02-07T16:32:56.302Z,20.83
2023-02-07T16:36:08.406Z,15.32
2023-02-07T16:39:19.314Z,11.80
2023-02-07T16:42:30.174Z,14.60
2023-02-07T16:45:41.974Z,20.88
2023-02-07T16:48:53.554Z,9.73
2023-02-07T16:52:03.710Z,14.40
2023-02-07T16:55:17.550Z,13.70
2023-02-07T16:58:27.350Z,15.32
2023-02-07T17:01:31.408Z,15.45
2023-02-07T17:04:34.509Z,16.23
2023-02-07T17:07:38.189Z,10.80
2023-02-07T17:10:48.205Z,15.20
2023-02-07T17:13:57.312Z,8.20
2023-02-07T17:17:01.538Z,10.30
2023-02-07T17:20:23.650Z,13.93
2023-02-07T17:23:29.485Z,15.80
2023-02-07T17:26:34.104Z,7.55
2023-02-07T17:29:38.482Z,12.02
2023-02-07T17:32:42.524Z,9.38
2023-02-07T17:35:46.500Z,3.92
2023-02-07T17:38:49.832Z,17.95
2023-02-07T17:41:54.306Z,6.65
2023-02-07T17:44:58.484Z,6.20
2023-02-07T17:48:02.922Z,9.88
2023-02-07T17:51:07.128Z,7.38
2023-02-07T17:54:10.064Z,6.45
2023-02-07T17:57:14.550Z,6.82
2023-02-07T18:00:30.321Z,12.40
2023-02-07T18:03:33.999Z,8.27
2023-02-07T18:06:37.878Z,6.93
2023-02-07T18:09:41.554Z,9.75
2023-02-07T18:12:46.407Z,6.90
2023-02-07T18:15:50.333Z,5.40
2023-02-07T18:18:56.683Z,8.77
2023-02-07T18:22:01.137Z,10.95
2023-02-07T18:25:04.861Z,7.00
2023-02-07T18:28:10.313Z,5.75
2023-02-07T18:31:18.429Z,6.82
2023-02-07T18:34:22.253Z,6.03
2023-02-07T18:37:27.288Z,8.52
2023-02-07T18:40:30.957Z,6.60
2023-02-07T18:43:35.355Z,5.78
2023-02-07T18:46:40.689Z,6.40
2023-02-07T18:49:44.763Z,7.07
2023-02-07T18:52:48.838Z,12.20
2023-02-07T18:55:53.661Z,10.90
2023-02-07T18:58:57.485Z,12.57
2023-02-07T19:02:02.877Z,15.02
2023-02-07T19:05:08.676Z,16.27
2023-02-07T19:08:12.383Z,13.25
2023-02-07T19:11:16.560Z,11.43
2023-02-07T19:14:23.812Z,15.27
2023-02-07T19:17:27.797Z,11.60
2023-02-07T19:20:31.964Z,16.30
2023-02-07T19:23:36.557Z,17.50
2023-02-07T19:26:40.439Z,12.57
2023-02-07T19:29:45.212Z,9.70
2023-02-07T19:32:51.377Z,11.10
2023-02-07T19:35:55.445Z,8.38
2023-02-07T19:39:00.041Z,10.77
2023-02-07T19:42:03.639Z,6.57
2023-02-07T19:45:07.321Z,10.25
2023-02-07T19:48:10.177Z,9.57
2023-02-07T19:51:20.715Z,9.18
2023-02-07T19:54:23.654Z,15.82
2023-02-07T19:57:26.890Z,10.43
2023-02-07T20:00:31.095Z,13.80
2023-02-07T20:03:35.101Z,8.77
2023-02-07T20:06:38.858Z,14.80
2023-02-07T20:09:45.005Z,10.15
2023-02-07T20:12:49.407Z,10.50
2023-02-07T20:15:52.732Z,7.03
2023-02-07T20:18:56.731Z,12.10
2023-02-07T20:22:00.709Z,16.45
2023-02-07T20:25:04.608Z,16.77
2023-02-07T20:28:09.787Z,12.82
2023-02-07T20:31:17.207Z,10.18
2023-02-07T20:34:20.698Z,5.78
2023-02-07T20:37:24.065Z,11.45
2023-02-07T20:40:27.022Z,14.05
2023-02-07T20:43:30.340Z,12.23
2023-02-07T20:46:35.479Z,24.02
2023-02-07T20:49:39.823Z,24.83
2023-02-07T20:52:42.829Z,18.20
2023-02-07T20:55:46.858Z,24.02
2023-02-07T20:58:50.538Z,18.08
2023-02-07T21:01:55.719Z,16.65
2023-02-07T21:04:59.473Z,11.77
2023-02-07T21:08:04.369Z,13.50
2023-02-07T21:11:09.094Z,12.38
2023-02-07T21:14:20.997Z,22.85
2023-02-07T21:17:24.449Z,21.20
2023-02-07T21:20:28.741Z,16.08
2023-02-07T21:23:32.372Z,26.00
2023-02-07T21:26:36.204Z,29.65
2023-02-07T21:29:39.865Z,22.10
2023-02-07T21:32:43.912Z,19.75
2023-02-07T21:35:50.127Z,17.33
2023-02-07T21:38:55.368Z,19.40
2023-02-07T21:42:00.557Z,13.65
2023-02-07T21:45:05.202Z,13.27
2023-02-07T21:48:08.920Z,16.77
2023-02-07T21:51:16.024Z,13.50
2023-02-07T21:54:19.529Z,13.67
2023-02-07T21:57:23.774Z,15.70
2023-02-07T22:00:27.724Z,13.98
2023-02-07T22:03:42.337Z,16.58
2023-02-07T22:06:47.886Z,13.43
2023-02-07T22:09:52.666Z,17.42
2023-02-07T22:12:56.430Z,18.35
2023-02-07T22:16:00.735Z,17.50
2023-02-07T22:19:05.526Z,13.15
2023-02-07T22:22:08.863Z,14.98
2023-02-07T22:25:11.868Z,29.60
2023-02-07T22:28:15.249Z,49.58
2023-02-07T22:31:27.018Z,36.92
2023-02-07T22:34:31.469Z,30.00
2023-02-07T22:37:34.694Z,35.13
2023-02-07T22:40:40.274Z,37.45
2023-02-07T22:43:44.181Z,34.92
2023-02-07T22:46:48.217Z,37.97
2023-02-07T22:49:51.887Z,65.65
2023-02-07T22:52:55.554Z,52.70
2023-02-07T22:56:02.342Z,37.35
2023-02-07T22:59:06.758Z,43.60
2023-02-07T23:02:10.867Z,27.17
2023-02-07T23:05:14.527Z,28.90
2023-02-07T23:08:18.604Z,24.40
2023-02-07T23:11:24.306Z,44.05
2023-02-07T23:14:28.030Z,38.13
2023-02-07T23:17:31.826Z,28.65
2023-02-07T23:20:35.503Z,30.88
2023-02-07T23:23:39.726Z,39.78
2023-02-07T23:26:43.815Z,41.05
2023-02-07T23:29:47.071Z,60.25
2023-02-07T23:32:50.456Z,67.10
2023-02-07T23:35:54.269Z,69.28
2023-02-07T23:38:57.668Z,37.58
2023-02-07T23:42:00.715Z,53.45
2023-02-07T23:45:08.549Z,38.55
2023-02-07T23:51:16.528Z,32.75
2023-02-07T23:54:20.183Z,45.17
2023-02-07T23:57:24.698Z,66.60
